Time;durP1;ratioP1;P1;durP2;ratioP2;P2;SDS_P1;SDS_P2;PMS_P1;PMS_P2;Temp;Humidity;BMP_temperature;BMP_pressure;BME280_temperature;BME280_humidity;BME280_pressure;Samples;Min_cycle;Max_cycle;Signal;HPM_P1;HPM_P2
2023/07/04 00:01:09;;;;;;;22.90;11.65;;;19.90;99.90;;;;;;5114530;28;20049;-58
2023/07/04 00:03:37;;;;;;;19.52;11.70;;;20.00;99.90;;;;;;5114556;28;20040;-57
2023/07/04 00:06:05;;;;;;;18.90;11.40;;;19.90;99.90;;;;;;5114790;28;20023;-58
2023/07/04 00:08:33;;;;;;;19.10;11.02;;;19.90;99.90;;;;;;5114916;28;20046;-58
2023/07/04 00:11:01;;;;;;;20.20;10.85;;;19.90;99.90;;;;;;5114542;28;20066;-58
2023/07/04 00:13:28;;;;;;;16.48;10.80;;;19.90;99.90;;;;;;5114445;28;20035;-58
2023/07/04 00:15:55;;;;;;;19.92;11.40;;;19.90;99.90;;;;;;5114764;28;20102;-58
2023/07/04 00:18:23;;;;;;;18.70;10.48;;;19.90;99.90;;;;;;5114629;28;20035;-57
2023/07/04 00:20:55;;;;;;;21.52;10.98;;;19.90;99.90;;;;;;5114480;28;20039;-58
2023/07/04 00:23:22;;;;;;;15.93;10.38;;;20.00;99.90;;;;;;5114531;28;20027;-58
2023/07/04 00:25:48;;;;;;;18.48;10.55;;;19.90;99.90;;;;;;5114555;28;20496;-58
2023/07/04 00:28:14;;;;;;;20.08;11.35;;;19.80;99.90;;;;;;5114773;28;20028;-57
2023/07/04 00:30:42;;;;;;;19.63;10.48;;;19.80;99.90;;;;;;5114660;28;20118;-58
2023/07/04 00:33:08;;;;;;;17.08;10.60;;;19.80;99.90;;;;;;5096077;28;20381;-58
2023/07/04 00:35:34;;;;;;;19.75;10.98;;;19.90;99.90;;;;;;5114439;28;20024;-58
2023/07/04 00:38:00;;;;;;;21.33;10.50;;;19.80;99.90;;;;;;5096334;28;20038;-58
2023/07/04 00:40:28;;;;;;;18.20;10.93;;;19.80;99.90;;;;;;5114507;28;20058;-58
2023/07/04 00:43:02;;;;;;;18.88;10.48;;;19.80;99.90;;;;;;5096162;28;20035;-58
2023/07/04 00:45:31;;;;;;;17.73;10.40;;;19.80;99.90;;;;;;5122683;28;20019;-58
2023/07/04 00:48:00;;;;;;;15.95;10.40;;;19.90;99.90;;;;;;5116490;28;20030;-58
2023/07/04 00:50:31;;;;;;;17.58;10.55;;;19.80;99.90;;;;;;5134894;28;20062;-58
2023/07/04 00:53:02;;;;;;;19.08;10.27;;;19.70;99.90;;;;;;5116465;28;20028;-58
2023/07/04 00:55:30;;;;;;;18.60;10.40;;;19.80;99.90;;;;;;5134897;28;20038;-58
2023/07/04 00:57:56;;;;;;;13.35;9.57;;;19.80;99.90;;;;;;5134911;28;20035;-57
2023/07/04 01:00:23;;;;;;;17.35;10.40;;;19.70;99.90;;;;;;5116314;28;20019;-58
2023/07/04 01:02:52;;;;;;;16.33;9.60;;;19.70;99.90;;;;;;5136778;27;20369;-58
2023/07/04 01:05:26;;;;;;;18.83;9.77;;;19.70;99.90;;;;;;5138623;27;20035;-58
2023/07/04 01:07:59;;;;;;;16.30;9.45;;;19.70;99.90;;;;;;5138221;27;20019;-58
2023/07/04 01:10:34;;;;;;;19.70;9.43;;;19.70;99.90;;;;;;5138305;27;20023;-58
2023/07/04 01:13:00;;;;;;;16.83;9.55;;;19.70;99.90;;;;;;5138227;27;20033;-58
2023/07/04 01:15:29;;;;;;;20.40;9.93;;;19.60;99.90;;;;;;5119749;27;20031;-58
2023/07/04 01:17:56;;;;;;;16.45;10.27;;;19.60;99.90;;;;;;5138163;27;20146;-58
2023/07/04 01:20:23;;;;;;;17.88;9.80;;;19.60;99.90;;;;;;5119744;27;20027;-58
2023/07/04 01:23:08;;;;;;;17.00;10.75;;;19.60;99.90;;;;;;5119807;27;20377;-58
2023/07/04 01:25:55;;;;;;;16.50;9.73;;;19.70;99.90;;;;;;5119763;27;20381;-58
2023/07/04 01:28:23;;;;;;;15.75;10.10;;;19.60;99.90;;;;;;5137955;27;20572;-58
2023/07/04 01:30:49;;;;;;;13.75;9.10;;;19.60;99.90;;;;;;5138051;27;20023;-58
2023/07/04 01:33:16;;;;;;;16.85;10.55;;;19.60;99.90;;;;;;5119511;27;20034;-58
2023/07/04 01:35:45;;;;;;;16.88;9.60;;;19.60;99.90;;;;;;5119432;27;20031;-58
2023/07/04 01:38:11;;;;;;;16.65;9.40;;;19.50;99.90;;;;;;5137831;27;20030;-58
2023/07/04 01:40:37;;;;;;;14.13;9.32;;;19.50;99.90;;;;;;5119573;27;20038;-58
2023/07/04 01:43:05;;;;;;;14.00;9.50;;;19.50;99.90;;;;;;5137814;27;20027;-58
2023/07/04 01:45:31;;;;;;;15.93;9.55;;;19.40;99.90;;;;;;5110520;28;20031;-57
2023/07/04 01:47:58;;;;;;;14.80;9.60;;;19.40;99.90;;;;;;5117268;28;20039;-58
2023/07/04 01:50:24;;;;;;;16.90;9.15;;;19.40;99.90;;;;;;5098556;28;20028;-58
2023/07/04 01:52:50;;;;;;;16.73;9.65;;;19.40;99.90;;;;;;5098916;28;20492;-58
2023/07/04 01:55:16;;;;;;;13.93;9.50;;;19.30;99.90;;;;;;5098446;28;20447;-58
2023/07/04 01:57:43;;;;;;;15.75;9.23;;;19.20;99.90;;;;;;5116913;28;20110;-58
2023/07/04 02:00:12;;;;;;;18.40;9.02;;;19.20;99.90;;;;;;5098481;28;20091;-57
2023/07/04 02:02:53;;;;;;;15.63;9.57;;;19.20;99.90;;;;;;5117169;28;20431;-58
2023/07/04 02:05:20;;;;;;;13.95;8.82;;;19.10;99.90;;;;;;5098563;28;20032;-58
2023/07/04 02:07:47;;;;;;;19.15;9.95;;;19.10;99.90;;;;;;5116798;28;20035;-58
2023/07/04 02:10:13;;;;;;;17.10;9.93;;;19.10;99.90;;;;;;5116582;28;20088;-58
2023/07/04 02:12:39;;;;;;;14.60;9.38;;;19.10;99.90;;;;;;5098262;28;20130;-58
2023/07/04 02:15:07;;;;;;;17.10;9.35;;;19.10;99.90;;;;;;5115541;28;20188;-58
2023/07/04 02:17:33;;;;;;;15.23;9.82;;;19.00;99.90;;;;;;5116433;28;20044;-58
2023/07/04 02:19:59;;;;;;;16.73;9.38;;;19.00;99.90;;;;;;5116546;28;20016;-57
2023/07/04 02:22:25;;;;;;;16.15;9.15;;;18.90;99.90;;;;;;5098281;28;20030;-58
2023/07/04 02:24:51;;;;;;;14.30;8.98;;;18.90;99.90;;;;;;5098315;28;20035;-58
2023/07/04 02:27:17;;;;;;;17.23;9.95;;;18.80;99.90;;;;;;5116444;28;20031;-57
2023/07/04 02:29:47;;;;;;;17.50;10.48;;;18.80;99.90;;;;;;5116394;28;20142;-58
2023/07/04 02:32:15;;;;;;;17.33;10.80;;;18.80;99.90;;;;;;5098036;28;20061;-58
2023/07/04 02:34:41;;;;;;;19.42;10.52;;;18.80;99.90;;;;;;5097878;28;20510;-58
2023/07/04 02:37:08;;;;;;;16.52;10.55;;;18.70;99.90;;;;;;5097897;28;20437;-58
2023/07/04 02:39:34;;;;;;;17.17;10.60;;;18.70;99.90;;;;;;5098055;28;20035;-57
2023/07/04 02:42:01;;;;;;;18.40;10.85;;;18.70;99.90;;;;;;5097909;28;20074;-58
2023/07/04 02:44:27;;;;;;;15.43;10.73;;;18.60;99.90;;;;;;5097760;28;20516;-57
2023/07/04 02:46:53;;;;;;;17.83;10.65;;;18.60;99.90;;;;;;5117905;27;20031;-58
2023/07/04 02:49:19;;;;;;;14.35;9.88;;;18.60;99.90;;;;;;5136604;27;20110;-57
2023/07/04 02:51:47;;;;;;;19.75;10.50;;;18.60;99.90;;;;;;5118007;27;20114;-58
2023/07/04 02:54:15;;;;;;;23.00;12.05;;;18.60;99.90;;;;;;5118028;27;20083;-58
2023/07/04 02:56:42;;;;;;;20.27;11.10;;;18.60;99.90;;;;;;5118035;27;20034;-57
2023/07/04 02:59:08;;;;;;;21.27;11.43;;;18.50;99.90;;;;;;5117798;27;20057;-58
2023/07/04 03:01:34;;;;;;;19.70;11.15;;;18.50;99.90;;;;;;5117823;27;20480;-58
2023/07/04 03:04:01;;;;;;;15.80;9.73;;;18.50;99.90;;;;;;5117884;27;20170;-57
2023/07/04 03:06:27;;;;;;;16.88;9.60;;;18.40;99.90;;;;;;5117741;27;20122;-58
2023/07/04 03:08:56;;;;;;;18.30;10.75;;;18.40;99.90;;;;;;5117704;27;20031;-58
2023/07/04 03:11:23;;;;;;;18.05;11.80;;;18.40;99.90;;;;;;5117678;27;20117;-58
2023/07/04 03:13:50;;;;;;;17.58;11.05;;;18.30;99.90;;;;;;5117517;27;20054;-58
2023/07/04 03:16:16;;;;;;;18.83;10.93;;;18.30;99.90;;;;;;5117509;27;20548;-58
2023/07/04 03:18:45;;;;;;;20.55;11.23;;;18.30;99.90;;;;;;5117531;27;20512;-58
2023/07/04 03:21:12;;;;;;;17.70;10.32;;;18.30;99.90;;;;;;5135985;27;20530;-58
2023/07/04 03:23:38;;;;;;;14.82;9.90;;;18.30;99.90;;;;;;5135919;27;20023;-58
2023/07/04 03:26:05;;;;;;;16.02;10.60;;;18.30;99.90;;;;;;5117157;27;20027;-58
2023/07/04 03:28:31;;;;;;;16.55;10.45;;;18.30;99.90;;;;;;5117584;27;20031;-58
2023/07/04 03:30:59;;;;;;;20.35;11.18;;;18.30;99.90;;;;;;5135918;27;20037;-58
2023/07/04 03:33:25;;;;;;;17.10;10.52;;;18.30;99.90;;;;;;5117374;27;20047;-58
2023/07/04 03:35:51;;;;;;;18.17;10.65;;;18.30;99.90;;;;;;5135794;27;20083;-58
2023/07/04 03:38:17;;;;;;;18.75;10.70;;;18.30;99.90;;;;;;5117211;27;20031;-58
2023/07/04 03:40:43;;;;;;;21.92;11.18;;;18.30;99.90;;;;;;5135719;27;20030;-58
2023/07/04 03:43:09;;;;;;;15.93;9.80;;;18.30;99.90;;;;;;5117450;27;20031;-58
2023/07/04 03:45:35;;;;;;;16.17;10.13;;;18.30;99.90;;;;;;5126418;27;20023;-58
2023/07/04 03:48:01;;;;;;;20.20;10.73;;;18.30;99.90;;;;;;5096867;28;20036;-58
2023/07/04 03:50:27;;;;;;;16.23;10.95;;;18.20;99.90;;;;;;5096633;28;20193;-58
2023/07/04 03:52:53;;;;;;;20.58;10.40;;;18.30;99.90;;;;;;5115017;28;20030;-58
2023/07/04 03:55:19;;;;;;;17.20;11.00;;;18.30;99.90;;;;;;5114809;28;20056;-58
2023/07/04 03:57:47;;;;;;;18.90;10.50;;;18.30;99.90;;;;;;5096776;28;20033;-58
2023/07/04 04:00:13;;;;;;;21.83;11.23;;;18.30;99.90;;;;;;5096544;28;20027;-58
2023/07/04 04:02:54;;;;;;;20.08;12.27;;;18.40;99.90;;;;;;5115201;28;20032;-58
2023/07/04 04:05:20;;;;;;;19.35;11.98;;;18.40;99.90;;;;;;5114832;28;20027;-58
2023/07/04 04:07:50;;;;;;;22.85;12.05;;;18.40;99.90;;;;;;5114779;28;20119;-58
2023/07/04 04:10:17;;;;;;;18.45;12.13;;;18.50;99.90;;;;;;5114626;28;20477;-58
2023/07/04 04:12:44;;;;;;;29.50;14.50;;;18.60;99.90;;;;;;5114780;28;20032;-58
2023/07/04 04:15:11;;;;;;;28.00;14.27;;;18.60;99.90;;;;;;5114811;28;20461;-58
2023/07/04 04:17:37;;;;;;;26.95;13.73;;;18.70;99.90;;;;;;5114524;28;20042;-58
2023/07/04 04:20:06;;;;;;;21.05;13.05;;;18.80;99.90;;;;;;5114779;28;20091;-58
2023/07/04 04:22:33;;;;;;;25.50;13.50;;;18.80;99.90;;;;;;5114592;28;20038;-58
2023/07/04 04:24:58;;;;;;;26.00;12.55;;;18.90;99.90;;;;;;5114637;28;20027;-58
2023/07/04 04:27:30;;;;;;;26.88;13.88;;;18.90;99.90;;;;;;5114589;28;20031;-58
2023/07/04 04:29:57;;;;;;;20.58;12.93;;;18.90;99.90;;;;;;5114551;28;20031;-58
2023/07/04 04:32:23;;;;;;;23.88;13.27;;;19.00;99.90;;;;;;5114710;28;20461;-58
2023/07/04 04:34:49;;;;;;;25.00;12.95;;;19.00;99.90;;;;;;5114693;28;20023;-58
2023/07/04 04:37:16;;;;;;;29.17;13.65;;;19.10;99.90;;;;;;5115400;28;20385;-58
2023/07/04 04:39:43;;;;;;;23.60;12.35;;;19.20;99.90;;;;;;5118563;28;20153;-58
2023/07/04 04:42:14;;;;;;;23.50;12.73;;;19.30;99.90;;;;;;5118382;28;20103;-58
2023/07/04 04:44:41;;;;;;;22.40;12.55;;;19.40;99.90;;;;;;5119623;27;20062;-58
2023/07/04 04:47:07;;;;;;;25.08;11.50;;;19.50;99.90;;;;;;5138953;27;20416;-58
2023/07/04 04:49:34;;;;;;;21.05;11.35;;;19.60;99.90;;;;;;5138676;27;20027;-58
2023/07/04 04:52:00;;;;;;;21.40;12.15;;;19.60;99.90;;;;;;5138786;27;20027;-58
2023/07/04 04:54:25;;;;;;;22.70;12.50;;;19.70;99.90;;;;;;5138727;27;20483;-58
2023/07/04 04:56:52;;;;;;;21.63;12.35;;;19.70;99.90;;;;;;5138803;27;20061;-58
2023/07/04 04:59:18;;;;;;;30.80;13.15;;;19.90;99.90;;;;;;5138545;27;20024;-58
2023/07/04 05:01:45;;;;;;;27.95;14.05;;;19.90;99.90;;;;;;5138614;27;20020;-58
2023/07/04 05:04:11;;;;;;;21.98;13.02;;;20.00;99.90;;;;;;5138265;27;20522;-58
2023/07/04 05:06:37;;;;;;;26.40;13.15;;;20.10;99.90;;;;;;5138592;27;20023;-58
2023/07/04 05:09:04;;;;;;;26.65;12.43;;;20.30;99.90;;;;;;5138579;27;20035;-58
2023/07/04 05:11:32;;;;;;;26.00;13.77;;;20.40;99.90;;;;;;5138320;27;20038;-58
2023/07/04 05:13:58;;;;;;;28.05;13.85;;;20.50;99.90;;;;;;5138285;27;20027;-58
2023/07/04 05:16:24;;;;;;;27.45;12.95;;;20.50;99.90;;;;;;5138087;27;20033;-58
2023/07/04 05:18:51;;;;;;;33.92;14.43;;;20.60;99.90;;;;;;5163853;27;20030;-58
2023/07/04 05:21:21;;;;;;;26.00;14.60;;;20.70;99.90;;;;;;5163512;27;20035;-58
2023/07/04 05:23:49;;;;;;;27.00;15.00;;;20.80;99.90;;;;;;5118821;27;20032;-58
2023/07/04 05:26:18;;;;;;;33.13;15.35;;;20.90;99.90;;;;;;5118183;27;20044;-58
2023/07/04 05:28:45;;;;;;;25.65;14.55;;;21.00;99.90;;;;;;5086825;28;20494;-58
2023/07/04 05:31:17;;;;;;;25.58;15.05;;;21.10;99.90;;;;;;5107186;27;20070;-58
2023/07/04 05:33:44;;;;;;;40.85;17.10;;;21.20;99.90;;;;;;5050725;28;1281159;-58
2023/07/04 05:36:18;;;;;;;38.35;17.13;;;21.30;99.90;;;;;;5092124;28;20064;-59
2023/07/04 05:38:48;;;;;;;49.58;18.92;;;21.40;99.90;;;;;;5104966;27;20064;-58
2023/07/04 05:41:16;;;;;;;56.03;22.80;;;21.50;99.90;;;;;;5130123;27;22590;-58
2023/07/04 05:43:42;;;;;;;51.20;23.95;;;21.60;99.90;;;;;;5123484;27;20054;-58
2023/07/04 05:46:15;;;;;;;52.60;24.45;;;21.70;99.90;;;;;;5104691;27;20427;-58
2023/07/04 05:48:42;;;;;;;49.75;25.05;;;21.80;99.90;;;;;;5086129;28;20055;-58
2023/07/04 05:51:11;;;;;;;54.53;27.48;;;21.80;99.90;;;;;;5078605;28;20358;-58
2023/07/04 05:53:40;;;;;;;165.18;32.28;;;22.00;99.90;;;;;;5106549;27;20074;-58
2023/07/04 05:56:18;;;;;;;63.90;31.58;;;22.10;99.90;;;;;;5104317;28;20118;-58
2023/07/04 05:58:46;;;;;;;80.90;34.42;;;22.20;99.90;;;;;;5054240;28;20099;-58
2023/07/04 06:01:20;;;;;;;72.90;32.15;;;22.30;99.90;;;;;;5056570;28;20493;-58
2023/07/04 06:03:46;;;;;;;60.97;31.08;;;22.40;99.90;;;;;;5075809;28;20052;-58
2023/07/04 06:06:22;;;;;;;62.25;30.90;;;22.50;99.90;;;;;;5064476;28;20041;-58
2023/07/04 06:08:49;;;;;;;63.92;33.47;;;22.60;99.90;;;;;;5072688;28;20072;-58
2023/07/04 06:11:16;;;;;;;64.68;34.33;;;22.80;99.90;;;;;;5060738;28;20033;-58
2023/07/04 06:13:43;;;;;;;58.97;31.52;;;22.90;99.90;;;;;;5080295;28;20208;-58
2023/07/04 06:16:09;;;;;;;60.50;32.13;;;22.90;99.90;;;;;;5049224;28;20056;-58
2023/07/04 06:18:36;;;;;;;60.33;28.88;;;23.00;99.90;;;;;;5051435;28;20035;-58
2023/07/04 06:21:23;;;;;;;54.08;28.45;;;23.10;99.90;;;;;;5045699;28;20057;-58
2023/07/04 06:23:51;;;;;;;48.40;26.90;;;23.20;99.90;;;;;;5034902;28;20088;-58
2023/07/04 06:26:17;;;;;;;43.08;22.90;;;23.30;99.90;;;;;;5031939;28;20041;-58
2023/07/04 06:28:43;;;;;;;42.28;23.13;;;23.30;99.90;;;;;;5041426;28;20037;-58
2023/07/04 06:31:13;;;;;;;40.88;23.30;;;23.40;99.90;;;;;;5031231;28;20102;-58
2023/07/04 06:33:40;;;;;;;33.22;22.00;;;23.60;99.90;;;;;;5074592;28;20045;-58
2023/07/04 06:36:14;;;;;;;32.90;19.80;;;23.60;99.90;;;;;;5071114;28;20083;-58
2023/07/04 06:38:41;;;;;;;31.27;18.02;;;23.70;99.90;;;;;;5065922;28;20122;-58
2023/07/04 06:41:15;;;;;;;29.23;18.13;;;23.90;99.90;;;;;;5073835;28;20082;-58
2023/07/04 06:43:43;;;;;;;34.90;15.80;;;24.00;99.90;;;;;;5024591;28;20040;-58
2023/07/04 06:46:14;;;;;;;31.77;15.60;;;24.10;99.90;;;;;;5076004;28;20486;-58
2023/07/04 06:48:40;;;;;;;22.30;14.40;;;24.30;99.90;;;;;;5088895;28;20051;-59
2023/07/04 06:51:13;;;;;;;26.35;13.75;;;24.50;99.90;;;;;;5083467;28;21890;-58
2023/07/04 06:53:40;;;;;;;23.75;13.02;;;24.70;99.90;;;;;;5073987;28;20089;-58
2023/07/04 06:56:10;;;;;;;31.00;14.85;;;24.80;99.90;;;;;;5088452;28;20035;-59
2023/07/04 06:58:40;;;;;;;23.83;13.25;;;25.10;99.90;;;;;;5057865;28;20029;-58
2023/07/04 07:01:06;;;;;;;21.33;13.23;;;25.20;99.90;;;;;;5044504;28;20515;-59
2023/07/04 07:03:33;;;;;;;25.15;11.50;;;25.40;99.90;;;;;;5083520;28;20512;-58
2023/07/04 07:06:04;;;;;;;17.60;10.50;;;25.60;99.90;;;;;;5057454;28;21026;-58
2023/07/04 07:08:30;;;;;;;15.27;9.60;;;25.60;99.90;;;;;;5048796;28;21512;-59
2023/07/04 07:10:58;;;;;;;20.45;10.45;;;25.70;99.90;;;;;;5059968;28;22647;-58
2023/07/04 07:13:25;;;;;;;19.90;10.05;;;25.90;99.90;;;;;;5068650;28;23073;-58
2023/07/04 07:15:52;;;;;;;18.92;10.73;;;26.30;99.10;;;;;;5068458;28;24555;-58
2023/07/04 07:18:19;;;;;;;19.00;10.95;;;26.50;98.90;;;;;;5070769;28;24348;-58
2023/07/04 07:20:44;;;;;;;22.20;10.40;;;26.70;97.70;;;;;;5031410;28;26233;-58
2023/07/04 07:23:11;;;;;;;27.80;12.93;;;27.00;97.80;;;;;;5054372;28;27066;-58
2023/07/04 07:25:37;;;;;;;22.20;13.27;;;27.20;98.60;;;;;;5064381;28;27406;-58
2023/07/04 07:28:04;;;;;;;20.35;13.48;;;27.50;98.00;;;;;;5059597;28;29063;-59
2023/07/04 07:30:30;;;;;;;18.80;12.88;;;27.40;97.60;;;;;;5045554;28;30483;-59
2023/07/04 07:32:56;;;;;;;18.75;15.18;;;27.30;97.40;;;;;;5050063;28;31081;-59
2023/07/04 07:35:22;;;;;;;22.45;15.80;;;27.10;97.20;;;;;;5050781;28;31283;-59
2023/07/04 07:37:51;;;;;;;19.55;15.35;;;26.90;97.40;;;;;;5026142;28;32818;-59
2023/07/04 07:40:17;;;;;;;23.30;16.33;;;26.60;97.50;;;;;;4989188;28;33483;-70
2023/07/04 07:42:43;;;;;;;22.17;16.00;;;26.40;98.00;;;;;;5038829;28;34068;-69
2023/07/04 07:45:09;;;;;;;23.23;15.63;;;26.40;98.60;;;;;;5057036;28;34904;-70
2023/07/04 07:47:35;;;;;;;23.30;15.25;;;26.30;98.30;;;;;;5064688;27;35910;-70
2023/07/04 07:50:01;;;;;;;25.13;15.27;;;26.60;99.30;;;;;;5077015;28;36670;-70
2023/07/04 07:52:27;;;;;;;21.10;14.73;;;27.00;98.10;;;;;;5073592;28;38621;-70
2023/07/04 07:54:53;;;;;;;25.15;14.43;;;27.20;97.30;;;;;;5063140;28;40307;-69
2023/07/04 07:57:19;;;;;;;20.55;14.02;;;27.90;97.00;;;;;;5034176;28;40915;-70
2023/07/04 07:59:45;;;;;;;23.40;14.50;;;28.10;95.20;;;;;;5046723;28;42838;-70
2023/07/04 08:02:14;;;;;;;22.10;14.70;;;28.30;93.70;;;;;;5048682;28;43371;-70
2023/07/04 08:04:41;;;;;;;18.83;14.30;;;28.60;92.60;;;;;;5048383;28;45475;-69
2023/07/04 08:07:08;;;;;;;22.55;13.65;;;28.90;92.40;;;;;;5039218;28;25038;-70
2023/07/04 08:09:34;;;;;;;19.95;13.57;;;29.20;91.70;;;;;;5010380;28;24980;-71
2023/07/04 08:12:00;;;;;;;16.33;12.40;;;29.40;91.20;;;;;;5056871;28;48135;-70
2023/07/04 08:14:26;;;;;;;22.30;13.70;;;29.50;86.70;;;;;;5073760;28;49166;-70
2023/07/04 08:16:53;;;;;;;28.30;14.60;;;29.30;89.20;;;;;;5065832;28;50006;-70
2023/07/04 08:19:23;;;;;;;19.10;14.13;;;29.20;86.20;;;;;;5005719;28;37104;-70
2023/07/04 08:21:49;;;;;;;21.63;15.48;;;29.30;85.50;;;;;;5025692;28;39092;-69
2023/07/04 08:24:16;;;;;;;20.00;15.18;;;29.30;83.90;;;;;;5026638;28;40532;-70
2023/07/04 08:26:49;;;;;;;21.40;15.07;;;29.20;86.80;;;;;;5053513;28;41371;-70
2023/07/04 08:29:16;;;;;;;23.00;15.35;;;29.50;85.70;;;;;;5042419;28;41766;-70
2023/07/04 08:31:43;;;;;;;22.55;14.48;;;29.40;82.90;;;;;;5035266;28;42919;-69
2023/07/04 08:34:10;;;;;;;20.55;14.07;;;29.30;84.90;;;;;;5024913;28;46166;-70
2023/07/04 08:36:37;;;;;;;19.52;12.93;;;29.60;85.90;;;;;;5010125;28;47451;-70
2023/07/04 08:39:03;;;;;;;23.30;14.88;;;29.70;82.20;;;;;;5014216;28;48080;-70
2023/07/04 08:42:05;;;;;;;18.95;13.50;;;29.70;80.40;;;;;;5020211;28;50118;-70
2023/07/04 08:44:35;;;;;;;21.80;14.18;;;29.60;78.70;;;;;;4918125;28;49950;-71
2023/07/04 08:47:01;;;;;;;23.50;13.00;;;29.60;80.90;;;;;;4932780;28;58783;-69
2023/07/04 08:49:28;;;;;;;20.27;12.95;;;29.60;80.60;;;;;;4909447;28;61960;-69
2023/07/04 08:52:04;;;;;;;19.27;12.13;;;29.80;82.10;;;;;;4897432;28;43395;-70
2023/07/04 08:54:32;;;;;;;22.20;12.98;;;29.50;76.50;;;;;;4911031;28;42190;-70
2023/07/04 08:57:02;;;;;;;22.63;13.25;;;29.30;78.30;;;;;;4911931;28;41392;-70
2023/07/04 08:59:41;;;;;;;19.15;13.18;;;29.00;76.60;;;;;;4900463;28;24979;-71
2023/07/04 09:05:50;;;;;;;20.35;13.35;;;29.20;82.20;;;;;;5152903;27;20480;-71
2023/07/04 09:08:22;;;;;;;21.73;13.88;;;29.60;81.90;;;;;;5114701;28;20162;-71
2023/07/04 09:10:51;;;;;;;28.70;14.25;;;30.00;78.00;;;;;;5048476;28;1440532;-73
2023/07/04 09:13:23;;;;;;;31.55;14.90;;;30.30;75.80;;;;;;5078538;28;20061;-72
2023/07/04 09:15:51;;;;;;;21.98;14.05;;;30.10;78.20;;;;;;5095924;28;20047;-71
2023/07/04 09:18:25;;;;;;;21.63;13.73;;;30.40;75.50;;;;;;5094480;28;20049;-70
2023/07/04 09:21:15;;;;;;;19.83;13.88;;;30.40;71.40;;;;;;5076731;28;20485;-71
2023/07/04 09:23:42;;;;;;;22.92;13.75;;;30.30;73.40;;;;;;5067817;28;20044;-71
2023/07/04 09:26:12;;;;;;;23.55;14.65;;;30.40;71.80;;;;;;5063063;28;20052;-70
2023/07/04 09:28:42;;;;;;;18.70;13.40;;;30.70;71.80;;;;;;5060345;28;20049;-70
2023/07/04 09:31:11;;;;;;;47.08;15.55;;;30.40;67.50;;;;;;5040594;28;20044;-69
2023/07/04 09:33:38;;;;;;;18.67;13.30;;;30.90;73.30;;;;;;5042015;28;20646;-65
2023/07/04 09:36:04;;;;;;;23.73;13.57;;;30.70;68.50;;;;;;5081638;28;20082;-63
2023/07/04 09:38:50;;;;;;;43.20;15.75;;;30.10;68.50;;;;;;5048029;28;20045;-64
2023/07/04 09:41:16;;;;;;;19.13;13.93;;;30.30;72.70;;;;;;5073930;28;20048;-70
2023/07/04 09:43:42;;;;;;;19.30;13.40;;;30.60;70.30;;;;;;5081778;28;20048;-70
2023/07/04 09:46:28;;;;;;;20.42;13.02;;;30.80;69.00;;;;;;5078375;28;20043;-70
2023/07/04 09:48:55;;;;;;;19.10;13.60;;;30.70;69.00;;;;;;5051288;28;20521;-71
2023/07/04 09:51:29;;;;;;;18.10;13.70;;;31.10;72.50;;;;;;5051288;28;20375;-72
2023/07/04 09:54:09;;;;;;;19.38;13.20;;;31.40;69.70;;;;;;4986849;28;20509;-71
2023/07/04 09:56:36;;;;;;;17.90;13.02;;;31.00;69.90;;;;;;4988679;28;20096;-71
2023/07/04 09:59:12;;;;;;;23.02;13.48;;;30.60;66.50;;;;;;5027166;28;20080;-71
2023/07/04 10:01:40;;;;;;;21.08;13.43;;;31.00;66.90;;;;;;5039328;28;20139;-71
2023/07/04 10:04:08;;;;;;;17.50;12.10;;;31.10;67.70;;;;;;5074029;28;20056;-70
2023/07/04 10:06:36;;;;;;;20.15;13.48;;;30.90;70.80;;;;;;5052596;28;20054;-70
2023/07/04 10:09:15;;;;;;;45.65;15.18;;;30.70;67.80;;;;;;5058287;28;20062;-69
2023/07/04 10:11:42;;;;;;;22.02;14.20;;;31.10;68.50;;;;;;5035784;28;20073;-70
2023/07/04 10:14:12;;;;;;;18.13;13.73;;;30.90;67.10;;;;;;5042247;28;20041;-71
2023/07/04 10:16:48;;;;;;;21.70;14.38;;;30.70;69.30;;;;;;5036561;28;20199;-71
2023/07/04 10:19:18;;;;;;;22.65;14.05;;;30.00;67.40;;;;;;5015596;28;20056;-72
2023/07/04 10:21:53;;;;;;;16.42;12.73;;;29.90;74.10;;;;;;4961247;28;20054;-71
2023/07/04 10:24:21;;;;;;;20.40;13.85;;;30.30;68.80;;;;;;4999230;28;20053;-71
2023/07/04 10:26:54;;;;;;;18.17;13.70;;;30.40;68.30;;;;;;4998628;28;20053;-71
2023/07/04 10:29:33;;;;;;;16.75;12.35;;;30.60;67.80;;;;;;5011126;28;20049;-71
2023/07/04 10:32:06;;;;;;;29.55;14.82;;;30.50;68.20;;;;;;4953103;28;20436;-71
2023/07/04 10:34:34;;;;;;;18.60;13.68;;;30.30;70.10;;;;;;4957428;28;20542;-71
2023/07/04 10:37:02;;;;;;;20.40;14.35;;;29.90;68.40;;;;;;5008263;28;20489;-70
2023/07/04 10:39:30;;;;;;;16.35;12.75;;;30.30;70.70;;;;;;5026266;28;20073;-71
2023/07/04 10:42:11;;;;;;;19.20;13.80;;;30.40;69.60;;;;;;4869471;28;20100;-71
2023/07/04 10:44:39;;;;;;;29.55;14.98;;;30.30;70.00;;;;;;4941623;28;20041;-71
2023/07/04 10:47:13;;;;;;;20.17;14.63;;;30.30;69.10;;;;;;5041122;28;20040;-69
2023/07/04 10:49:50;;;;;;;23.27;13.65;;;30.20;70.90;;;;;;4994677;28;20053;-72
2023/07/04 10:52:26;;;;;;;27.23;14.88;;;30.40;69.30;;;;;;4889336;28;20610;-71
2023/07/04 10:54:52;;;;;;;18.85;13.20;;;30.90;70.90;;;;;;4879263;29;20040;-71
2023/07/04 10:59:50;;;;;;;24.27;13.68;;;31.30;67.30;;;;;;4860991;29;20217;-72
2023/07/04 11:02:46;;;;;;;21.77;13.30;;;31.30;66.50;;;;;;4864330;29;20072;-73
2023/07/04 11:05:40;;;;;;;19.83;13.05;;;31.50;65.80;;;;;;4881666;29;20753;-72
2023/07/04 11:08:12;;;;;;;18.75;12.52;;;31.70;65.70;;;;;;4885575;28;20071;-71
2023/07/04 11:10:41;;;;;;;24.73;13.50;;;32.20;63.70;;;;;;5012793;28;20391;-73
2023/07/04 11:13:12;;;;;;;21.50;13.37;;;32.00;62.20;;;;;;5012017;28;20724;-72
2023/07/04 11:15:39;;;;;;;20.83;12.27;;;32.60;61.60;;;;;;5030908;28;22090;-72
2023/07/04 11:18:05;;;;;;;22.67;13.10;;;33.00;59.90;;;;;;5015592;28;23311;-59
2023/07/04 11:20:40;;;;;;;22.50;12.85;;;32.40;62.00;;;;;;4992160;28;24181;-59
2023/07/04 11:23:18;;;;;;;24.70;13.15;;;32.10;62.30;;;;;;4981186;28;33466;-59
2023/07/04 11:25:44;;;;;;;20.45;12.65;;;31.40;61.10;;;;;;5014977;28;35039;-58
2023/07/04 11:28:34;;;;;;;17.27;12.88;;;30.70;68.00;;;;;;5015227;28;36560;-58
2023/07/04 11:31:27;;;;;;;24.00;12.98;;;30.80;62.50;;;;;;5020711;28;37646;-59
2023/07/04 11:33:53;;;;;;;20.70;14.07;;;31.40;63.10;;;;;;4969482;28;40362;-58
2023/07/04 11:36:39;;;;;;;19.02;13.05;;;31.30;63.20;;;;;;4963585;28;40714;-58
2023/07/04 11:39:28;;;;;;;17.92;13.75;;;31.30;62.20;;;;;;4996860;28;42803;-58
2023/07/04 11:41:56;;;;;;;19.80;12.95;;;31.10;66.30;;;;;;5003063;28;44749;-58
2023/07/04 11:44:29;;;;;;;23.40;12.10;;;31.00;65.70;;;;;;4970658;28;47103;-58
2023/07/04 11:47:05;;;;;;;16.38;12.30;;;30.90;65.70;;;;;;4962482;28;48666;-58
2023/07/04 11:49:33;;;;;;;20.38;13.38;;;30.90;65.10;;;;;;5006263;28;49356;-59
2023/07/04 11:52:25;;;;;;;22.83;13.77;;;30.50;64.90;;;;;;5008979;28;56777;-58
2023/07/04 11:55:14;;;;;;;19.13;14.23;;;29.80;72.10;;;;;;5009073;28;56795;-59
2023/07/04 11:58:16;;;;;;;19.50;14.63;;;29.60;71.70;;;;;;5003276;28;49129;-58
2023/07/04 12:00:48;;;;;;;19.73;14.23;;;29.50;77.20;;;;;;4984570;28;49832;-58
2023/07/04 12:03:20;;;;;;;25.15;14.43;;;29.30;73.50;;;;;;5015622;28;35334;-58
2023/07/04 12:05:57;;;;;;;19.97;14.07;;;29.40;76.20;;;;;;5022156;28;35465;-58
2023/07/04 12:08:40;;;;;;;22.20;13.90;;;29.30;74.70;;;;;;5039265;28;49497;-58
2023/07/04 12:11:11;;;;;;;22.15;14.38;;;29.00;76.40;;;;;;5029329;28;38458;-58
2023/07/04 12:13:39;;;;;;;21.75;13.65;;;28.80;79.00;;;;;;5033068;28;49284;-58
2023/07/04 12:16:06;;;;;;;19.73;13.73;;;28.60;81.00;;;;;;5044322;28;24868;-58
2023/07/04 12:18:34;;;;;;;25.17;14.68;;;28.50;83.20;;;;;;5029776;28;49158;-58
2023/07/04 12:21:01;;;;;;;31.60;15.20;;;28.40;80.50;;;;;;4988483;28;49339;-58
2023/07/04 12:23:27;;;;;;;20.40;13.57;;;28.20;80.40;;;;;;5002063;28;49448;-58
2023/07/04 12:25:56;;;;;;;28.25;14.10;;;28.10;80.20;;;;;;4971035;28;50677;-58
2023/07/04 12:28:26;;;;;;;25.08;13.80;;;28.10;80.10;;;;;;4963945;28;49796;-58
2023/07/04 12:31:02;;;;;;;25.20;13.52;;;27.50;79.70;;;;;;4963738;28;49655;-58
2023/07/04 12:33:31;;;;;;;46.97;18.13;;;27.50;82.00;;;;;;4959945;28;44121;-58
2023/07/04 12:36:17;;;;;;;29.00;14.45;;;27.40;83.50;;;;;;4911917;28;49231;-58
2023/07/04 12:38:45;;;;;;;21.40;13.77;;;27.10;86.80;;;;;;4687771;28;47362;-58
2023/07/04 12:41:17;;;;;;;23.92;12.82;;;27.10;83.50;;;;;;4667874;29;22753;-58
2023/07/04 12:43:43;;;;;;;35.25;16.33;;;27.10;85.20;;;;;;4703444;30;23332;-57
2023/07/04 12:46:11;;;;;;;25.17;14.30;;;27.20;83.00;;;;;;4712318;29;23638;-58